createdAt,value
2018-11-13T00:00:13.887Z,5.70
2018-11-13T00:01:13.981Z,5.70
2018-11-13T00:02:14.069Z,6.00
2018-11-13T00:03:22.825Z,6.60
2018-11-13T00:04:14.308Z,6.00
2018-11-13T00:05:14.407Z,5.50
2018-11-13T00:06:14.508Z,6.40
2018-11-13T00:07:14.603Z,5.70
2018-11-13T00:08:14.685Z,5.90
2018-11-13T00:09:14.785Z,6.10
2018-11-13T00:10:14.879Z,5.50
2018-11-13T00:11:14.997Z,5.00
2018-11-13T00:12:15.117Z,5.40
2018-11-13T00:13:15.176Z,5.10
2018-11-13T00:14:15.285Z,5.40
2018-11-13T00:15:15.382Z,5.60
2018-11-13T00:16:15.475Z,5.40
2018-11-13T00:17:15.558Z,5.60
2018-11-13T00:18:15.662Z,5.20
2018-11-13T00:19:15.740Z,5.40
2018-11-13T00:20:15.839Z,5.50
2018-11-13T00:21:15.946Z,5.80
2018-11-13T00:22:16.047Z,5.30
2018-11-13T00:23:16.141Z,5.40
2018-11-13T00:24:16.239Z,5.60
2018-11-13T00:25:16.324Z,6.30
2018-11-13T00:26:16.588Z,5.60
2018-11-13T00:27:16.562Z,6.30
2018-11-13T00:28:16.652Z,6.00
2018-11-13T00:29:16.773Z,6.10
2018-11-13T00:30:16.841Z,6.00
2018-11-13T00:31:16.953Z,6.00
2018-11-13T00:32:17.042Z,6.50
2018-11-13T00:33:17.144Z,6.40
2018-11-13T00:34:17.237Z,6.50
2018-11-13T00:35:17.336Z,7.40
2018-11-13T00:36:17.426Z,7.60
2018-11-13T00:37:17.532Z,6.80
2018-11-13T00:38:17.608Z,6.40
2018-11-13T00:39:18.064Z,6.20
2018-11-13T00:40:18.135Z,6.80
2018-11-13T00:41:17.943Z,6.80
2018-11-13T00:42:17.978Z,6.80
2018-11-13T00:43:18.099Z,7.20
2018-11-13T00:44:18.163Z,6.40
2018-11-13T00:45:18.289Z,7.20
2018-11-13T00:46:18.368Z,6.50
2018-11-13T00:47:18.476Z,7.20
2018-11-13T00:48:18.591Z,6.80
2018-11-13T00:49:18.672Z,6.90
2018-11-13T00:50:18.770Z,6.40
2018-11-13T00:51:18.861Z,6.70
2018-11-13T00:52:18.954Z,7.10
2018-11-13T00:53:19.043Z,6.30
2018-11-13T00:54:19.134Z,5.80
2018-11-13T00:55:19.224Z,5.60
2018-11-13T00:56:19.334Z,5.90
2018-11-13T00:57:19.405Z,6.50
2018-11-13T00:58:19.506Z,6.10
2018-11-13T00:59:19.633Z,6.50
2018-11-13T01:00:19.756Z,6.40
2018-11-13T01:01:19.801Z,6.90
2018-11-13T01:02:19.895Z,6.80
2018-11-13T01:03:19.991Z,7.10
2018-11-13T01:04:20.081Z,6.60
2018-11-13T01:05:20.206Z,6.70
2018-11-13T01:06:20.254Z,6.70
2018-11-13T01:07:20.356Z,6.40
2018-11-13T01:08:20.469Z,6.30
2018-11-13T01:09:20.569Z,6.60
2018-11-13T01:10:20.664Z,6.70
2018-11-13T01:11:20.757Z,7.10
2018-11-13T01:12:20.843Z,7.20
2018-11-13T01:13:20.945Z,7.10
2018-11-13T01:14:21.056Z,6.60
2018-11-13T01:15:21.124Z,6.80
2018-11-13T01:16:21.234Z,6.70
2018-11-13T01:17:21.356Z,6.60
2018-11-13T01:18:21.430Z,6.70
2018-11-13T01:19:21.525Z,7.00
2018-11-13T01:20:21.626Z,6.70
2018-11-13T01:21:21.714Z,6.80
2018-11-13T01:22:21.825Z,6.80
2018-11-13T01:23:21.923Z,6.60
2018-11-13T01:24:21.999Z,6.80
2018-11-13T01:25:22.092Z,6.70
2018-11-13T01:26:22.184Z,6.70
2018-11-13T01:27:22.265Z,7.10
2018-11-13T01:28:22.353Z,7.90
2018-11-13T01:29:22.455Z,7.30
2018-11-13T01:30:22.549Z,7.60
2018-11-13T01:31:22.641Z,7.50
2018-11-13T01:32:22.731Z,7.60
2018-11-13T01:33:22.832Z,7.90
2018-11-13T01:34:22.928Z,7.90
2018-11-13T01:35:33.488Z,7.50
2018-11-13T01:36:23.080Z,8.10
2018-11-13T01:37:23.183Z,7.50
2018-11-13T01:38:30.920Z,8.10
2018-11-13T01:39:23.391Z,8.30
2018-11-13T01:40:32.141Z,8.40
2018-11-13T01:41:32.278Z,8.50
2018-11-13T01:42:23.727Z,8.30
2018-11-13T01:43:23.823Z,8.70
2018-11-13T01:44:23.980Z,8.50
2018-11-13T01:45:24.041Z,8.50
2018-11-13T01:46:32.778Z,8.40
2018-11-13T01:47:24.250Z,8.50
2018-11-13T01:48:24.355Z,8.20
2018-11-13T01:49:24.480Z,7.90
2018-11-13T01:50:24.531Z,7.70
2018-11-13T01:51:24.631Z,7.40
2018-11-13T01:52:24.717Z,7.40
2018-11-13T01:53:24.818Z,8.00
2018-11-13T01:54:24.941Z,7.80
2018-11-13T01:55:25.012Z,8.40
2018-11-13T01:56:25.097Z,8.10
2018-11-13T01:57:25.228Z,7.90
2018-11-13T01:58:25.289Z,8.20
2018-11-13T01:59:25.391Z,8.10
2018-11-13T02:00:25.482Z,7.90
2018-11-13T02:01:25.578Z,7.70
2018-11-13T02:02:25.668Z,7.70
2018-11-13T02:03:25.759Z,7.80
2018-11-13T02:04:25.856Z,8.10
2018-11-13T02:05:25.951Z,7.70
2018-11-13T02:06:26.044Z,7.70
2018-11-13T02:07:26.137Z,7.50
2018-11-13T02:08:26.226Z,7.70
2018-11-13T02:09:26.331Z,7.10
2018-11-13T02:10:26.416Z,7.70
2018-11-13T02:11:26.511Z,7.80
2018-11-13T02:12:26.604Z,7.80
2018-11-13T02:13:26.697Z,8.00
2018-11-13T02:14:26.802Z,7.70
2018-11-13T02:15:26.896Z,7.90
2018-11-13T02:16:26.989Z,8.00
2018-11-13T02:17:27.085Z,7.40
2018-11-13T02:18:27.182Z,7.90
2018-11-13T02:19:27.272Z,7.90
2018-11-13T02:20:27.370Z,7.90
2018-11-13T02:21:27.459Z,8.00
2018-11-13T02:22:27.554Z,8.00
2018-11-13T02:23:27.651Z,8.30
2018-11-13T02:24:27.744Z,7.80
2018-11-13T02:25:27.842Z,8.40
2018-11-13T02:26:27.930Z,8.10
2018-11-13T02:27:28.032Z,8.80
2018-11-13T02:28:28.136Z,8.90
2018-11-13T02:29:28.221Z,8.70
2018-11-13T02:30:28.320Z,9.50
2018-11-13T02:31:28.409Z,9.00
2018-11-13T02:32:28.504Z,8.70
2018-11-13T02:33:28.596Z,8.10
2018-11-13T02:34:28.685Z,8.20
2018-11-13T02:35:28.841Z,8.20
2018-11-13T02:36:28.875Z,8.50
2018-11-13T02:37:28.990Z,8.30
2018-11-13T02:38:29.072Z,8.80
2018-11-13T02:39:29.170Z,8.50
2018-11-13T02:40:29.262Z,8.60
2018-11-13T02:41:29.354Z,8.40
2018-11-13T02:42:29.446Z,8.80
2018-11-13T02:43:29.542Z,8.10
2018-11-13T02:44:29.638Z,8.40
2018-11-13T02:45:29.734Z,8.50
2018-11-13T02:46:29.827Z,8.10
2018-11-13T02:47:29.907Z,8.30
2018-11-13T02:48:30.019Z,8.50
2018-11-13T02:49:30.110Z,9.10
2018-11-13T02:50:30.208Z,9.10
2018-11-13T02:51:30.296Z,8.80
2018-11-13T02:52:30.387Z,8.80
2018-11-13T02:53:30.484Z,9.10
2018-11-13T02:54:30.582Z,8.90
2018-11-13T02:55:30.679Z,8.80
2018-11-13T02:56:30.770Z,8.70
2018-11-13T02:57:30.868Z,9.60
2018-11-13T02:58:30.953Z,9.30
2018-11-13T02:59:31.044Z,9.70
2018-11-13T03:00:31.135Z,9.40
2018-11-13T03:01:31.236Z,9.10
2018-11-13T03:02:31.324Z,9.00
2018-11-13T03:03:31.416Z,9.40
2018-11-13T03:04:31.513Z,8.40
2018-11-13T03:05:31.602Z,8.20
2018-11-13T03:06:31.712Z,8.30
2018-11-13T03:07:31.809Z,8.50
2018-11-13T03:08:31.900Z,8.70
2018-11-13T03:09:31.998Z,8.70
2018-11-13T03:10:32.091Z,8.30
2018-11-13T03:11:32.188Z,8.70
2018-11-13T03:12:32.283Z,8.90
2018-11-13T03:13:32.422Z,9.40
2018-11-13T03:14:32.479Z,9.50
2018-11-13T03:15:32.573Z,9.30
2018-11-13T03:16:32.668Z,9.60
2018-11-13T03:17:32.760Z,9.80
2018-11-13T03:18:32.854Z,9.00
2018-11-13T03:19:32.944Z,8.70
2018-11-13T03:20:33.039Z,9.10
2018-11-13T03:21:33.134Z,9.20
2018-11-13T03:22:33.233Z,9.30
2018-11-13T03:23:33.327Z,9.10
2018-11-13T03:24:33.424Z,9.70
2018-11-13T03:25:33.525Z,10.00
2018-11-13T03:26:33.609Z,10.20
2018-11-13T03:27:33.704Z,10.10
2018-11-13T03:28:33.798Z,10.50
2018-11-13T03:29:33.896Z,10.10
2018-11-13T03:30:33.991Z,10.70
2018-11-13T03:31:34.230Z,10.10
2018-11-13T03:32:34.176Z,10.00
2018-11-13T03:33:34.278Z,9.90
2018-11-13T03:34:34.366Z,9.40
2018-11-13T03:35:34.461Z,9.50
2018-11-13T03:36:34.556Z,9.30
2018-11-13T03:37:34.650Z,9.50
2018-11-13T03:38:34.745Z,9.20
2018-11-13T03:39:34.840Z,9.40
2018-11-13T03:40:34.936Z,10.00
2018-11-13T03:41:35.024Z,9.50
2018-11-13T03:42:35.122Z,10.50
2018-11-13T03:43:35.216Z,10.60
2018-11-13T03:44:35.309Z,10.40
2018-11-13T03:45:35.404Z,10.70
2018-11-13T03:46:35.495Z,10.30
2018-11-13T03:47:35.587Z,10.20
2018-11-13T03:48:35.683Z,10.30
2018-11-13T03:49:35.778Z,10.00
2018-11-13T03:50:35.874Z,9.70
2018-11-13T03:51:35.968Z,10.00
2018-11-13T03:52:36.068Z,9.60
2018-11-13T03:53:36.156Z,9.20
2018-11-13T03:54:36.250Z,9.10
2018-11-13T03:55:36.344Z,9.40
2018-11-13T03:56:36.439Z,9.80
2018-11-13T03:57:36.536Z,9.80
2018-11-13T03:58:36.644Z,9.00
2018-11-13T03:59:36.727Z,9.00
2018-11-13T04:00:36.817Z,9.10
2018-11-13T04:01:36.914Z,9.20
2018-11-13T04:02:37.005Z,7.50
2018-11-13T04:03:37.103Z,7.30
2018-11-13T04:04:37.197Z,7.50
2018-11-13T04:05:37.292Z,8.30
2018-11-13T04:06:37.386Z,8.40
2018-11-13T04:07:37.479Z,8.20
2018-11-13T04:08:37.569Z,8.70
2018-11-13T04:09:37.659Z,9.10
2018-11-13T04:10:37.759Z,9.40
2018-11-13T04:11:37.858Z,8.50
2018-11-13T04:12:37.955Z,9.30
2018-11-13T04:13:38.048Z,8.60
2018-11-13T04:14:38.133Z,9.10
2018-11-13T04:15:38.240Z,8.70
2018-11-13T04:16:38.317Z,8.60
2018-11-13T04:17:38.418Z,8.30
2018-11-13T04:18:38.512Z,8.30
2018-11-13T04:19:38.615Z,8.90
2018-11-13T04:20:38.697Z,7.10
2018-11-13T04:21:38.796Z,7.00
2018-11-13T04:22:38.888Z,7.60
2018-11-13T04:23:38.982Z,7.80
2018-11-13T04:24:39.077Z,8.30
2018-11-13T04:25:39.172Z,8.30
2018-11-13T04:26:39.265Z,8.40
2018-11-13T04:27:39.366Z,8.40
2018-11-13T04:28:39.455Z,7.40
2018-11-13T04:29:39.551Z,6.80
2018-11-13T04:30:39.690Z,5.20
2018-11-13T04:31:39.740Z,6.60
2018-11-13T04:32:39.833Z,7.40
2018-11-13T04:33:39.925Z,7.90
2018-11-13T04:34:40.023Z,7.90
2018-11-13T04:35:40.117Z,8.00
2018-11-13T04:36:40.211Z,7.80
2018-11-13T04:37:40.299Z,6.80
2018-11-13T04:38:40.399Z,5.90
2018-11-13T04:39:40.491Z,6.30
2018-11-13T04:40:40.581Z,6.40
2018-11-13T04:41:40.685Z,6.10
2018-11-13T04:42:40.778Z,6.20
2018-11-13T04:43:40.879Z,6.80
2018-11-13T04:44:40.972Z,6.70
2018-11-13T04:45:41.063Z,7.20
2018-11-13T04:46:41.157Z,6.80
2018-11-13T04:47:41.251Z,5.70
2018-11-13T04:48:41.347Z,5.80
2018-11-13T04:49:41.441Z,5.80
2018-11-13T04:50:41.535Z,5.70
2018-11-13T04:51:41.676Z,6.50
2018-11-13T04:52:41.728Z,6.30
2018-11-13T04:53:41.820Z,6.60
2018-11-13T04:54:41.914Z,7.20
2018-11-13T04:55:42.008Z,7.10
2018-11-13T04:56:42.106Z,7.70
2018-11-13T04:57:42.193Z,6.90
2018-11-13T04:58:42.281Z,7.30
2018-11-13T04:59:42.373Z,7.50
2018-11-13T05:00:42.467Z,7.10
2018-11-13T05:01:42.561Z,8.20
2018-11-13T05:02:42.662Z,7.00
2018-11-13T05:03:42.761Z,6.60
2018-11-13T05:04:42.864Z,6.60
2018-11-13T05:05:42.940Z,6.80
2018-11-13T05:06:43.033Z,7.20
2018-11-13T05:07:43.130Z,6.90
2018-11-13T05:08:43.219Z,6.20
2018-11-13T05:09:43.313Z,6.70
2018-11-13T05:10:43.405Z,6.90
2018-11-13T05:11:43.501Z,7.70
2018-11-13T05:12:43.595Z,7.90
2018-11-13T05:13:43.687Z,7.60
2018-11-13T05:14:43.781Z,8.50
2018-11-13T05:15:43.873Z,9.00
2018-11-13T05:16:43.971Z,8.60
2018-11-13T05:17:44.065Z,11.50
2018-11-13T05:18:44.160Z,8.00
2018-11-13T05:19:44.254Z,8.10
2018-11-13T05:20:44.350Z,7.80
2018-11-13T05:21:44.441Z,8.00
2018-11-13T05:22:44.535Z,7.90
2018-11-13T05:23:44.623Z,7.70
2018-11-13T05:24:44.723Z,7.30
2018-11-13T05:25:44.826Z,7.20
2018-11-13T05:26:44.911Z,7.50
2018-11-13T05:27:45.013Z,6.70
2018-11-13T05:28:45.100Z,7.30
2018-11-13T05:29:45.202Z,7.00
2018-11-13T05:30:45.295Z,7.00
2018-11-13T05:31:45.386Z,6.80
2018-11-13T05:32:45.504Z,6.80
2018-11-13T05:33:45.570Z,7.10
2018-11-13T05:34:45.664Z,7.00
2018-11-13T05:35:45.759Z,6.80
2018-11-13T05:36:45.853Z,6.60
2018-11-13T05:37:45.950Z,6.60
2018-11-13T05:38:46.041Z,6.30
2018-11-13T05:39:46.135Z,6.70
2018-11-13T05:40:46.233Z,6.10
2018-11-13T05:41:46.372Z,6.00
2018-11-13T05:42:46.420Z,6.10
2018-11-13T05:43:46.509Z,6.40
2018-11-13T05:44:46.602Z,5.50
2018-11-13T05:45:46.693Z,5.10
2018-11-13T05:46:46.787Z,4.80
2018-11-13T05:47:46.883Z,4.60
2018-11-13T05:48:46.979Z,4.10
2018-11-13T05:49:47.087Z,4.00
2018-11-13T05:50:47.169Z,4.20
2018-11-13T05:51:47.260Z,4.00
2018-11-13T05:52:47.351Z,4.10
2018-11-13T05:53:47.460Z,3.90
2018-11-13T05:54:47.533Z,3.30
2018-11-13T05:55:47.639Z,3.00
2018-11-13T05:56:47.729Z,3.00
2018-11-13T05:57:47.840Z,2.60
2018-11-13T05:58:47.939Z,2.90
2018-11-13T05:59:48.037Z,3.00
2018-11-13T06:00:48.121Z,3.00
2018-11-13T06:01:48.216Z,2.80
2018-11-13T06:02:48.303Z,2.80
2018-11-13T06:03:55.582Z,3.50
2018-11-13T06:04:48.552Z,2.90
2018-11-13T06:05:48.651Z,2.70
2018-11-13T06:06:48.732Z,3.00
2018-11-13T06:07:48.830Z,3.10
2018-11-13T06:08:48.925Z,3.30
2018-11-13T06:09:49.022Z,3.60
2018-11-13T06:10:49.109Z,3.60
2018-11-13T06:11:49.200Z,3.90
2018-11-13T06:12:49.301Z,3.70
2018-11-13T06:13:49.462Z,3.80
2018-11-13T06:14:49.520Z,4.00
2018-11-13T06:15:49.597Z,4.20
2018-11-13T06:16:49.729Z,4.50
2018-11-13T06:17:49.781Z,4.60
2018-11-13T06:18:49.868Z,4.40
2018-11-13T06:19:49.949Z,4.20
2018-11-13T06:20:50.047Z,4.50
2018-11-13T06:21:50.129Z,4.50
2018-11-13T06:22:50.226Z,4.20
2018-11-13T06:23:50.299Z,4.80
2018-11-13T06:24:50.384Z,4.40
2018-11-13T06:25:50.486Z,4.70
2018-11-13T06:26:50.577Z,4.10
2018-11-13T06:27:50.665Z,4.20
2018-11-13T06:28:50.758Z,4.70
2018-11-13T06:29:50.852Z,4.90
2018-11-13T06:30:50.944Z,4.40
2018-11-13T06:31:51.042Z,4.90
2018-11-13T06:32:51.195Z,6.90
2018-11-13T06:33:51.229Z,15.10
2018-11-13T06:34:51.326Z,16.00
2018-11-13T06:35:51.403Z,18.10
2018-11-13T06:36:51.493Z,8.80
2018-11-13T06:37:51.582Z,10.80
2018-11-13T06:38:51.706Z,8.00
2018-11-13T06:39:51.750Z,7.80
2018-11-13T06:40:51.829Z,8.00
2018-11-13T06:41:51.942Z,7.20
2018-11-13T06:42:52.012Z,5.70
2018-11-13T06:43:52.103Z,4.30
2018-11-13T06:44:52.189Z,3.60
2018-11-13T06:45:52.288Z,3.60
2018-11-13T06:46:52.377Z,3.40
2018-11-13T06:47:52.490Z,3.30
2018-11-13T06:48:52.594Z,3.40
2018-11-13T06:49:52.679Z,3.30
2018-11-13T06:50:52.775Z,2.90
2018-11-13T06:51:52.864Z,2.80
2018-11-13T06:52:52.958Z,3.10
2018-11-13T06:53:53.051Z,2.30
2018-11-13T06:54:53.144Z,2.50
2018-11-13T06:55:53.240Z,2.90
2018-11-13T06:56:53.322Z,3.20
2018-11-13T06:57:53.413Z,2.90
2018-11-13T06:58:53.505Z,2.50
2018-11-13T06:59:53.599Z,2.50
2018-11-13T07:00:53.698Z,2.80
2018-11-13T07:01:53.789Z,2.50
2018-11-13T07:02:53.907Z,2.70
2018-11-13T07:03:53.996Z,2.70
2018-11-13T07:04:54.114Z,2.50
2018-11-13T07:05:54.181Z,2.10
2018-11-13T07:06:54.275Z,2.10
2018-11-13T07:07:54.368Z,1.90
2018-11-13T07:08:54.461Z,2.30
2018-11-13T07:09:54.548Z,2.90
2018-11-13T07:10:54.709Z,2.90
2018-11-13T07:11:54.732Z,2.70
2018-11-13T07:12:54.825Z,1.90
2018-11-13T07:13:54.921Z,2.10
2018-11-13T07:14:55.011Z,2.40
2018-11-13T07:15:55.105Z,2.00
2018-11-13T07:16:55.198Z,2.60
2018-11-13T07:17:55.293Z,2.20
2018-11-13T07:18:55.385Z,2.00
2018-11-13T07:19:55.477Z,2.30
2018-11-13T07:20:55.571Z,2.10
2018-11-13T07:21:55.708Z,2.10
2018-11-13T07:22:55.756Z,2.20
2018-11-13T07:23:55.848Z,1.80
2018-11-13T07:24:55.943Z,1.80
2018-11-13T07:25:56.035Z,1.60
2018-11-13T07:26:56.185Z,1.90
2018-11-13T07:27:56.238Z,1.90
2018-11-13T07:28:56.317Z,1.60
2018-11-13T07:29:56.411Z,1.70
2018-11-13T07:30:56.504Z,1.60
2018-11-13T07:31:56.597Z,2.10
2018-11-13T07:32:56.691Z,1.70
2018-11-13T07:33:56.785Z,1.60
2018-11-13T07:34:56.878Z,2.40
2018-11-13T07:35:56.970Z,2.10
2018-11-13T07:36:57.062Z,2.00
2018-11-13T07:37:57.155Z,1.80
2018-11-13T07:38:57.249Z,1.70
2018-11-13T07:39:57.342Z,1.50
2018-11-13T07:40:57.458Z,2.00
2018-11-13T07:41:57.526Z,1.90
2018-11-13T07:42:57.619Z,1.60
2018-11-13T07:43:57.713Z,1.70
2018-11-13T07:44:57.806Z,1.80
2018-11-13T07:45:57.899Z,1.40
2018-11-13T07:46:58.068Z,1.50
2018-11-13T07:47:58.165Z,1.30
2018-11-13T07:48:58.182Z,1.60
2018-11-13T07:49:58.277Z,1.30
2018-11-13T07:50:58.412Z,1.30
2018-11-13T07:51:58.463Z,1.50
2018-11-13T07:52:58.556Z,1.60
2018-11-13T07:53:58.740Z,1.50
2018-11-13T07:54:58.736Z,1.60
2018-11-13T07:55:58.840Z,1.40
2018-11-13T07:56:58.927Z,1.50
2018-11-13T07:57:59.021Z,2.30
2018-11-13T07:58:59.112Z,1.70
2018-11-13T07:59:59.207Z,3.20
2018-11-13T08:00:59.316Z,2.00
2018-11-13T08:01:59.406Z,1.40
2018-11-13T08:02:59.502Z,1.50
2018-11-13T08:03:59.594Z,1.50
2018-11-13T08:04:59.686Z,1.30
2018-11-13T08:05:59.800Z,1.40
2018-11-13T08:06:59.873Z,1.70
2018-11-13T08:07:59.967Z,1.70
2018-11-13T08:09:00.058Z,1.70
2018-11-13T08:10:00.151Z,1.80
2018-11-13T08:11:00.247Z,2.00
2018-11-13T08:12:00.358Z,1.80
2018-11-13T08:13:00.512Z,2.00
2018-11-13T08:14:00.538Z,1.70
2018-11-13T08:15:00.634Z,1.70
2018-11-13T08:16:00.726Z,1.50
2018-11-13T08:17:00.819Z,1.50
2018-11-13T08:18:00.913Z,1.50
2018-11-13T08:19:01.007Z,1.30
2018-11-13T08:20:01.101Z,1.80
2018-11-13T08:21:01.235Z,1.40
2018-11-13T08:22:01.331Z,1.50
2018-11-13T08:23:01.371Z,1.60
2018-11-13T08:24:01.463Z,2.20
2018-11-13T08:25:01.558Z,2.50
2018-11-13T08:26:01.646Z,2.30
2018-11-13T08:27:01.777Z,2.20
2018-11-13T08:28:01.921Z,2.10
2018-11-13T08:29:02.189Z,1.90
2018-11-13T08:30:02.017Z,1.60
2018-11-13T08:31:02.110Z,1.60
2018-11-13T08:32:02.202Z,1.60
2018-11-13T08:33:02.321Z,2.00
2018-11-13T08:34:02.393Z,1.70
2018-11-13T08:35:02.568Z,1.60
2018-11-13T08:36:02.586Z,1.70
2018-11-13T08:37:02.679Z,1.70
2018-11-13T08:38:02.773Z,1.90
2018-11-13T08:39:02.868Z,1.80
2018-11-13T08:40:02.961Z,2.50
2018-11-13T08:41:03.052Z,1.90
2018-11-13T08:42:03.149Z,1.60
2018-11-13T08:43:03.248Z,1.70
2018-11-13T08:44:03.404Z,1.80
2018-11-13T08:45:03.434Z,1.60
2018-11-13T08:46:03.529Z,1.60
2018-11-13T08:47:03.635Z,2.20
2018-11-13T08:48:03.708Z,2.10
2018-11-13T08:49:03.802Z,1.60
2018-11-13T08:50:03.899Z,4.60
2018-11-13T08:51:03.992Z,2.50
2018-11-13T08:52:04.084Z,1.60
2018-11-13T08:53:04.175Z,1.90
2018-11-13T08:54:04.269Z,1.60
2018-11-13T08:55:04.362Z,1.90
2018-11-13T08:56:04.460Z,1.90
2018-11-13T08:57:04.553Z,2.10
2018-11-13T08:58:04.644Z,1.70
2018-11-13T08:59:04.793Z,1.80
2018-11-13T09:00:04.836Z,1.80
2018-11-13T09:01:04.925Z,1.80
2018-11-13T09:02:05.018Z,1.70
2018-11-13T09:03:05.110Z,1.70
2018-11-13T09:04:05.206Z,1.80
2018-11-13T09:05:05.363Z,1.70
2018-11-13T09:06:05.391Z,1.60
2018-11-13T09:07:05.483Z,1.70
2018-11-13T09:08:05.576Z,1.80
2018-11-13T09:09:05.671Z,1.50
2018-11-13T09:10:05.777Z,1.90
2018-11-13T09:11:05.877Z,1.50
2018-11-13T09:12:06.038Z,1.70
2018-11-13T09:13:06.041Z,1.40
2018-11-13T09:14:06.134Z,1.60
2018-11-13T09:15:06.229Z,1.70
2018-11-13T09:16:06.322Z,1.70
2018-11-13T09:17:06.416Z,1.80
2018-11-13T09:18:06.577Z,1.50
2018-11-13T09:19:06.709Z,1.50
2018-11-13T09:20:06.697Z,1.90
2018-11-13T09:21:06.792Z,1.60
2018-11-13T09:22:06.888Z,1.30
2018-11-13T09:23:06.977Z,1.30
2018-11-13T09:24:07.094Z,1.50
2018-11-13T09:25:07.170Z,1.50
2018-11-13T09:26:07.265Z,1.20
2018-11-13T09:27:07.354Z,1.70
2018-11-13T09:28:07.451Z,1.30
2018-11-13T09:29:07.546Z,1.40
2018-11-13T09:30:07.660Z,1.60
2018-11-13T09:31:07.804Z,1.50
2018-11-13T09:32:07.827Z,1.60
2018-11-13T09:33:07.995Z,1.40
2018-11-13T09:34:08.010Z,1.20
2018-11-13T09:35:08.121Z,1.60
2018-11-13T09:36:08.206Z,2.00
2018-11-13T09:37:08.299Z,1.60
2018-11-13T09:38:08.397Z,1.90
2018-11-13T09:39:08.490Z,1.80
2018-11-13T09:40:08.580Z,1.60
2018-11-13T09:41:08.671Z,1.70
2018-11-13T09:42:08.768Z,1.50
2018-11-13T09:43:08.862Z,1.70
2018-11-13T09:44:08.958Z,1.90
2018-11-13T09:45:09.046Z,1.70
2018-11-13T09:46:09.143Z,1.70
2018-11-13T09:47:09.241Z,3.80
2018-11-13T09:48:09.334Z,2.40
2018-11-13T09:49:09.427Z,2.10
2018-11-13T09:50:09.520Z,2.10
2018-11-13T09:51:09.624Z,1.90
2018-11-13T09:52:09.718Z,2.00
2018-11-13T09:53:09.817Z,2.10
2018-11-13T09:54:09.907Z,2.20
2018-11-13T09:55:09.999Z,1.50
2018-11-13T09:56:10.094Z,1.40
2018-11-13T09:57:10.187Z,2.00
2018-11-13T09:58:10.284Z,1.10
2018-11-13T09:59:10.376Z,1.40
2018-11-13T10:00:10.574Z,1.30
2018-11-13T10:01:11.033Z,1.40
2018-11-13T10:02:11.216Z,1.00
2018-11-13T10:03:11.511Z,1.10
2018-11-13T10:04:11.401Z,1.30
2018-11-13T10:05:11.576Z,1.10
2018-11-13T10:06:11.032Z,1.10
2018-11-13T10:07:11.131Z,1.00
2018-11-13T10:08:11.229Z,1.10
2018-11-13T10:09:11.321Z,1.40
2018-11-13T10:10:11.432Z,1.20
2018-11-13T10:11:11.503Z,1.10
2018-11-13T10:12:11.611Z,1.00
2018-11-13T10:13:11.705Z,1.10
2018-11-13T10:14:11.797Z,1.00
2018-11-13T10:15:11.889Z,1.00
2018-11-13T10:16:11.982Z,1.00
2018-11-13T10:17:12.106Z,1.00
2018-11-13T10:18:12.321Z,1.00
2018-11-13T10:19:12.274Z,0.90
2018-11-13T10:20:12.361Z,1.10
2018-11-13T10:21:12.455Z,1.10
2018-11-13T10:22:12.551Z,1.00
2018-11-13T10:23:12.648Z,1.20
2018-11-13T10:24:12.745Z,1.10
2018-11-13T10:25:12.839Z,1.20
2018-11-13T10:26:12.969Z,1.20
2018-11-13T10:27:13.034Z,0.90
2018-11-13T10:28:13.153Z,1.00
2018-11-13T10:29:13.230Z,0.90
2018-11-13T10:30:13.309Z,1.00
2018-11-13T10:31:13.405Z,1.00
2018-11-13T10:32:13.499Z,1.00
2018-11-13T10:33:13.592Z,1.10
2018-11-13T10:34:13.686Z,1.00
2018-11-13T10:35:13.780Z,1.00
2018-11-13T10:36:13.875Z,0.90
2018-11-13T10:37:13.967Z,0.90
2018-11-13T10:38:14.062Z,1.10
2018-11-13T10:39:14.157Z,1.10
2018-11-13T10:40:14.321Z,1.10
2018-11-13T10:41:14.348Z,1.00
2018-11-13T10:42:14.436Z,0.80
2018-11-13T10:43:14.529Z,0.90
2018-11-13T10:44:14.624Z,0.90
2018-11-13T10:45:14.721Z,0.90
2018-11-13T10:46:14.823Z,0.80
2018-11-13T10:47:14.908Z,1.00
2018-11-13T10:48:15.001Z,1.00
2018-11-13T10:49:15.121Z,1.00
2018-11-13T10:50:15.337Z,1.10
2018-11-13T10:51:15.284Z,0.80
2018-11-13T10:52:15.382Z,1.00
2018-11-13T10:53:15.476Z,1.00
2018-11-13T10:54:15.569Z,0.90
2018-11-13T10:55:15.666Z,0.90
2018-11-13T10:56:15.768Z,1.00
2018-11-13T10:57:15.851Z,1.00
2018-11-13T10:58:15.945Z,1.00
2018-11-13T10:59:16.042Z,1.00
2018-11-13T11:00:16.137Z,1.10
2018-11-13T11:01:16.234Z,1.40
2018-11-13T11:02:16.358Z,1.00
2018-11-13T11:03:16.422Z,1.00
2018-11-13T11:04:16.512Z,1.20
2018-11-13T11:05:16.612Z,1.20
2018-11-13T11:06:16.708Z,1.00
2018-11-13T11:07:16.801Z,1.00
2018-11-13T11:08:16.903Z,1.20
2018-11-13T11:09:16.990Z,1.40
2018-11-13T11:10:17.089Z,1.50
2018-11-13T11:11:17.186Z,1.40
2018-11-13T11:12:17.263Z,1.70
2018-11-13T11:13:17.627Z,1.60
2018-11-13T11:14:17.447Z,1.20
2018-11-13T11:15:17.546Z,1.50
2018-11-13T11:16:17.637Z,1.40
2018-11-13T11:17:17.731Z,1.40
2018-11-13T11:18:17.825Z,1.40
2018-11-13T11:19:17.965Z,1.50
2018-11-13T11:20:18.012Z,1.40
2018-11-13T11:21:18.105Z,1.20
2018-11-13T11:22:18.198Z,1.40
2018-11-13T11:23:18.351Z,1.10
2018-11-13T11:24:18.466Z,1.20
2018-11-13T11:25:18.564Z,1.50
2018-11-13T11:26:18.609Z,1.40
2018-11-13T11:27:18.680Z,1.30
2018-11-13T11:28:18.773Z,1.50
2018-11-13T11:29:18.877Z,1.30
2018-11-13T11:30:18.969Z,1.40
2018-11-13T11:31:19.060Z,1.30
2018-11-13T11:32:19.159Z,1.30
2018-11-13T11:33:19.257Z,1.30
2018-11-13T11:34:19.353Z,1.20
2018-11-13T11:35:19.451Z,1.50
2018-11-13T11:36:19.543Z,1.20
2018-11-13T11:37:19.630Z,1.50
2018-11-13T11:38:19.726Z,1.30
2018-11-13T11:39:19.892Z,1.70
2018-11-13T11:40:19.924Z,1.60
2018-11-13T11:41:20.017Z,1.10
2018-11-13T11:42:20.114Z,1.40
2018-11-13T11:43:20.208Z,1.40
2018-11-13T11:44:20.323Z,1.20
2018-11-13T11:45:20.407Z,1.40
2018-11-13T11:46:20.501Z,1.50
2018-11-13T11:47:20.682Z,1.50
2018-11-13T11:48:20.711Z,1.30
2018-11-13T11:49:20.865Z,1.40
2018-11-13T11:50:20.913Z,1.40
2018-11-13T11:51:21.018Z,1.30
2018-11-13T11:52:21.108Z,1.20
2018-11-13T11:53:21.203Z,1.00
2018-11-13T11:54:21.302Z,1.30
2018-11-13T11:55:21.399Z,1.50
2018-11-13T11:59:04.194Z,1.50
2018-11-13T12:00:04.286Z,1.50
2018-11-13T12:01:04.380Z,1.40
2018-11-13T12:02:04.497Z,1.40
2018-11-13T12:03:04.567Z,1.30
2018-11-13T12:04:04.664Z,1.30
2018-11-13T12:05:04.756Z,1.60
2018-11-13T12:06:04.851Z,1.50
2018-11-13T12:07:04.945Z,1.50
2018-11-13T12:08:05.030Z,1.40
2018-11-13T12:09:12.316Z,1.20
2018-11-13T12:10:05.162Z,1.20
2018-11-13T12:11:05.247Z,1.40
2018-11-13T12:12:05.360Z,1.30
2018-11-13T12:13:05.437Z,1.40
2018-11-13T12:14:05.526Z,1.30
2018-11-13T12:15:05.618Z,1.30
2018-11-13T12:16:05.714Z,1.30
2018-11-13T12:17:05.812Z,1.30
2018-11-13T12:18:05.901Z,1.10
2018-11-13T12:19:06.077Z,1.50
2018-11-13T12:20:06.091Z,1.30
2018-11-13T12:21:06.184Z,1.30
2018-11-13T12:22:06.284Z,1.20
2018-11-13T12:23:06.372Z,1.70
2018-11-13T12:24:06.467Z,1.30
2018-11-13T12:25:06.561Z,1.40
2018-11-13T12:26:06.653Z,1.40
2018-11-13T12:27:06.748Z,1.30
2018-11-13T12:28:06.844Z,1.30
2018-11-13T12:29:06.936Z,1.60
2018-11-13T12:30:07.030Z,1.30
2018-11-13T12:31:07.125Z,1.30
2018-11-13T12:32:07.220Z,1.30
2018-11-13T12:33:07.312Z,1.40
2018-11-13T12:34:07.421Z,0.80
2018-11-13T12:35:07.502Z,1.30
2018-11-13T12:36:07.593Z,1.30
2018-11-13T12:37:07.688Z,1.30
2018-11-13T12:38:07.782Z,1.10
2018-11-13T12:39:07.876Z,1.00
2018-11-13T12:40:07.970Z,1.20
2018-11-13T12:41:08.064Z,1.10
2018-11-13T12:42:08.158Z,1.10
2018-11-13T12:43:08.252Z,1.30
2018-11-13T12:44:08.346Z,1.40
2018-11-13T12:45:08.442Z,1.30
2018-11-13T12:46:08.534Z,1.20
2018-11-13T12:47:08.627Z,1.40
2018-11-13T12:48:08.726Z,1.40
2018-11-13T12:49:08.871Z,1.30
2018-11-13T12:50:08.908Z,1.20
2018-11-13T12:51:09.004Z,1.30
2018-11-13T12:52:09.100Z,1.30
2018-11-13T12:53:09.193Z,1.20
2018-11-13T12:54:09.288Z,1.10
2018-11-13T12:55:09.388Z,1.10
2018-11-13T12:56:09.518Z,1.50
2018-11-13T12:57:09.571Z,1.50
2018-11-13T12:58:09.665Z,1.30
2018-11-13T12:59:09.758Z,1.30
2018-11-13T13:00:09.855Z,1.20
2018-11-13T13:01:09.948Z,1.40
2018-11-13T13:02:10.110Z,1.50
2018-11-13T13:03:10.135Z,1.10
2018-11-13T13:04:10.229Z,1.20
2018-11-13T13:05:10.323Z,1.30
2018-11-13T13:06:10.419Z,1.20
2018-11-13T13:07:10.512Z,1.30
2018-11-13T13:08:10.609Z,1.50
2018-11-13T13:09:10.700Z,1.20
2018-11-13T13:10:10.793Z,1.40
2018-11-13T13:11:10.876Z,1.20
2018-11-13T13:12:10.979Z,1.40
2018-11-13T13:13:11.063Z,1.20
2018-11-13T13:14:11.167Z,1.30
2018-11-13T13:15:11.262Z,1.30
2018-11-13T13:16:11.352Z,1.60
2018-11-13T13:17:11.446Z,1.40
2018-11-13T13:18:11.539Z,1.20
2018-11-13T13:19:11.634Z,1.30
2018-11-13T13:20:11.728Z,1.30
2018-11-13T13:21:11.819Z,1.10